createdAt,value
2016-03-28T13:01:37.227Z,45.59
2016-03-28T13:02:05.760Z,46.07
2016-03-28T13:03:05.935Z,46.36
2016-03-28T13:04:06.140Z,46.26
2016-03-28T13:05:05.955Z,44.92
2016-03-28T13:06:05.973Z,45.11
2016-03-28T13:07:05.975Z,45.11
2016-03-28T13:08:06.041Z,44.54
2016-03-28T13:09:06.027Z,45.21
2016-03-28T13:10:06.030Z,45.3
2016-03-28T13:11:06.033Z,45.3
2016-03-28T13:12:06.082Z,45.98
2016-03-28T13:13:06.069Z,46.07
2016-03-28T13:14:06.072Z,44.92
2016-03-28T13:15:06.090Z,45
2016-03-28T13:16:06.109Z,45.47
2016-03-28T13:17:06.158Z,44.8
2016-03-28T13:18:06.129Z,44.9
2016-03-28T13:19:06.148Z,45.09
2016-03-28T13:20:06.151Z,45.37
2016-03-28T13:21:06.373Z,45.18
2016-03-28T13:22:06.187Z,45.95
2016-03-28T13:23:06.237Z,45.86
2016-03-28T13:24:06.208Z,45.37
2016-03-28T13:25:06.226Z,45.95
2016-03-28T13:26:06.245Z,46.14
2016-03-28T13:27:06.263Z,46.34
2016-03-28T13:28:06.266Z,46.24
2016-03-28T13:29:06.269Z,46.05
2016-03-28T13:30:06.286Z,46.24
2016-03-28T13:31:06.305Z,46.43
2016-03-28T13:32:06.308Z,46.03
2016-03-28T13:33:06.325Z,45.93
2016-03-28T13:34:06.344Z,44.68
2016-03-28T13:35:06.347Z,45.26
2016-03-28T13:36:06.366Z,45.54
2016-03-28T13:37:06.571Z,44.78
2016-03-28T13:38:06.402Z,45.93
2016-03-28T13:39:06.405Z,46.31
2016-03-28T13:40:06.407Z,46.03
2016-03-28T13:41:06.426Z,45.9
2016-03-28T13:42:07.085Z,45.64
2016-03-28T13:43:06.446Z,46
2016-03-28T13:44:06.465Z,45.9
2016-03-28T13:45:06.483Z,46.48
2016-03-28T13:46:06.486Z,46.58
2016-03-28T13:47:06.504Z,46.48
2016-03-28T13:48:06.507Z,46.1
2016-03-28T13:49:06.525Z,46.67
2016-03-28T13:50:06.543Z,46.67
2016-03-28T13:52:06.548Z,47.06
2016-03-28T13:53:06.615Z,47.06
2016-03-28T13:54:06.586Z,47.15
2016-03-28T13:55:06.589Z,47.15
2016-03-28T13:56:06.638Z,46.96
2016-03-28T13:57:06.625Z,47.53
2016-03-28T13:58:06.628Z,46.86
2016-03-28T13:59:06.661Z,47.06
2016-03-28T14:00:06.653Z,46.96
2016-03-28T14:01:06.671Z,47.06
2016-03-28T14:02:06.986Z,47.44
2016-03-28T14:03:06.677Z,47.44
2016-03-28T14:04:06.695Z,47.61
2016-03-28T14:05:06.713Z,47.8
2016-03-28T14:06:06.716Z,47.51
2016-03-28T14:07:06.736Z,48.09
2016-03-28T14:08:06.739Z,47.99
2016-03-28T14:09:06.756Z,48.28
2016-03-28T14:10:06.759Z,47.82
2016-03-28T14:11:06.777Z,47.42
2016-03-28T14:12:06.796Z,47.92
2016-03-28T14:13:06.799Z,47.73
2016-03-28T14:14:06.817Z,48.02
2016-03-28T14:15:06.835Z,47.63
2016-03-28T14:16:06.838Z,47.61
2016-03-28T14:17:06.841Z,48.09
2016-03-28T14:18:06.858Z,47.42
2016-03-28T14:19:06.877Z,47.42
2016-03-28T14:20:06.896Z,47.99
2016-03-28T14:21:06.899Z,47.92
2016-03-28T14:22:06.902Z,48.28
2016-03-28T14:23:06.919Z,48.47
2016-03-28T14:24:06.922Z,48.3
2016-03-28T14:25:06.941Z,48.11
2016-03-28T14:26:06.943Z,47.53
2016-03-28T14:27:06.962Z,47.99
2016-03-28T14:28:06.965Z,47.82
2016-03-28T14:29:07.185Z,47.73
2016-03-28T14:30:06.985Z,47.82
2016-03-28T14:31:07.004Z,48.02
2016-03-28T14:32:06.865Z,47.15
2016-03-28T14:33:07.024Z,47.25
2016-03-28T14:34:07.043Z,47.44
2016-03-28T14:35:07.045Z,47.06
2016-03-28T14:36:07.048Z,47.44
2016-03-28T14:37:07.082Z,47.44
2016-03-28T14:38:07.085Z,47.15
2016-03-28T14:39:07.103Z,46.86
2016-03-28T14:40:07.137Z,47.34
2016-03-28T14:41:07.125Z,47.34
2016-03-28T14:42:07.127Z,46.96
2016-03-28T14:43:07.911Z,47.34
2016-03-28T14:44:07.179Z,47.15
2016-03-28T14:45:07.275Z,46.86
2016-03-28T14:46:07.169Z,46.19
2016-03-28T14:47:07.187Z,46.29
2016-03-28T14:48:07.221Z,46.48
2016-03-28T14:49:07.239Z,45.81
2016-03-28T14:50:07.367Z,46.58
2016-03-28T14:51:06.682Z,45.79
2016-03-28T14:52:07.264Z,45.98
2016-03-28T14:53:07.266Z,46.26
2016-03-28T14:54:07.269Z,46.55
2016-03-28T14:55:07.599Z,47.22
2016-03-28T14:56:07.321Z,47.42
2016-03-28T14:57:07.402Z,47.89
2016-03-28T14:58:07.389Z,47.61
2016-03-28T14:59:07.329Z,47.51
2016-03-28T15:00:07.332Z,47.49
2016-03-28T15:01:07.569Z,47.78
2016-03-28T15:02:07.024Z,47.78
2016-03-28T15:03:07.418Z,47.78
2016-03-28T15:04:07.420Z,47.97
2016-03-28T15:05:07.407Z,47.97
2016-03-28T15:06:07.410Z,48.16
2016-03-28T15:07:07.412Z,47.87
2016-03-28T15:08:07.447Z,47.87
2016-03-28T15:09:07.481Z,48.16
2016-03-28T15:10:07.530Z,48.44
2016-03-28T15:11:07.533Z,48.54
2016-03-28T15:12:07.458Z,48.52
2016-03-28T15:13:07.491Z,48.93
2016-03-28T15:26:07.057Z,50.15
2016-03-28T15:28:07.188Z,50.52
2016-03-28T15:29:07.050Z,50.34
2016-03-28T15:31:07.071Z,50.15
2016-03-28T15:33:07.092Z,50.52
2016-03-28T15:34:07.360Z,50.24
2016-03-28T15:35:07.457Z,50.62
2016-03-28T15:36:07.365Z,50.62
2016-03-28T15:37:07.134Z,50.52
2016-03-28T15:38:07.137Z,50.24
2016-03-28T15:39:07.389Z,50.52
2016-03-28T15:40:07.392Z,50.52
2016-03-28T15:41:07.207Z,50.34
2016-03-28T15:42:07.428Z,50.52
2016-03-28T15:44:07.200Z,50.62
2016-03-28T15:45:07.218Z,50.62
2016-03-28T15:46:07.220Z,50.72
2016-03-28T15:47:07.223Z,50.91
2016-03-28T15:48:07.273Z,50.79
2016-03-28T15:49:07.400Z,50.43
2016-03-28T15:50:07.325Z,50.91
2016-03-28T15:52:07.283Z,50.72
2016-03-28T15:53:07.927Z,50.34
2016-03-28T15:54:07.524Z,50.89
2016-03-28T15:55:07.307Z,50.6
2016-03-28T15:56:07.310Z,50.7
2016-03-28T15:57:07.329Z,51.17
2016-03-28T15:58:07.331Z,50.72
2016-03-28T15:59:07.334Z,50.81
2016-03-28T16:00:07.571Z,51.58
2016-03-28T16:01:07.433Z,50.81
2016-03-28T16:02:07.373Z,51.17
2016-03-28T16:03:07.376Z,50.72
2016-03-28T16:04:07.613Z,50.52
2016-03-28T16:05:07.396Z,50.72
2016-03-28T16:06:07.634Z,51.2
2016-03-28T16:07:07.418Z,51.29
2016-03-28T16:08:06.998Z,51.48
2016-03-28T16:09:07.751Z,51.2
2016-03-28T16:10:07.473Z,50.72
2016-03-28T16:11:07.459Z,49.95
2016-03-28T16:12:07.462Z,49.86
2016-03-28T16:13:07.481Z,50.07
2016-03-28T16:14:07.483Z,49.88
2016-03-28T16:15:21.986Z,50.65
2016-03-28T16:16:07.692Z,49.98
2016-03-28T16:17:07.711Z,49.79
2016-03-28T16:18:07.525Z,49.79
2016-03-28T16:19:07.528Z,49.4
2016-03-28T16:20:07.547Z,49.02
2016-03-28T16:21:07.549Z,48.54
2016-03-28T16:22:07.567Z,48.93
2016-03-28T16:23:07.820Z,48.07
2016-03-28T16:24:07.588Z,48.64
2016-03-28T16:25:08.013Z,48.64
2016-03-28T16:26:07.610Z,48.73
2016-03-28T16:27:07.862Z,47.68
2016-03-28T16:28:08.037Z,47.11
2016-03-28T16:29:07.836Z,47.3
2016-03-28T16:31:07.670Z,47.01
2016-03-28T16:32:07.673Z,47.49
2016-03-28T16:33:07.676Z,47.58
2016-03-28T16:34:07.771Z,47.58
2016-03-28T16:35:08.368Z,47.78
2016-03-28T16:36:07.980Z,47.87
2016-03-28T16:37:07.811Z,47.68
2016-03-28T16:38:07.939Z,47.75
2016-03-28T16:39:08.457Z,47.39
2016-03-28T16:40:08.085Z,47.37
2016-03-28T16:41:07.775Z,47.66
2016-03-28T16:42:07.887Z,47.27
2016-03-28T16:43:07.811Z,47.75
2016-03-28T16:44:07.876Z,47.47
2016-03-28T16:45:07.864Z,47.56
2016-03-28T16:46:07.946Z,47.75
2016-03-28T16:47:07.808Z,47.27
2016-03-28T16:48:07.967Z,47.37
2016-03-28T16:49:07.985Z,47.08
2016-03-28T16:50:08.768Z,47.27
2016-03-28T16:51:08.318Z,46.98
2016-03-28T16:52:07.977Z,47.06
2016-03-28T16:53:08.183Z,47.27
2016-03-28T16:54:07.904Z,46.87
2016-03-28T16:55:08.064Z,46.67
2016-03-28T16:56:08.114Z,46.58
2016-03-28T16:57:08.038Z,46.01
2016-03-28T16:58:07.931Z,46.3
2016-03-28T16:59:07.918Z,46.01
2016-03-28T17:00:07.937Z,45.91
2016-03-28T17:01:08.986Z,46.2
2016-03-28T17:02:08.598Z,45.72
2016-03-28T17:03:08.835Z,44.86
2016-03-28T17:04:08.431Z,44.45
2016-03-28T17:05:08.152Z,45.15
2016-03-28T17:06:08.203Z,44.76
2016-03-28T17:07:08.408Z,45.89
2016-03-28T17:08:08.067Z,45.79
2016-03-28T17:09:08.258Z,45.7
2016-03-28T17:10:22.135Z,45.12
2016-03-28T17:11:08.029Z,44.36
2016-03-28T17:12:08.063Z,44.36
2016-03-28T17:14:08.115Z,45.03
2016-03-28T17:16:08.088Z,44.26
2016-03-28T17:17:08.092Z,43.3
2016-03-28T17:18:08.110Z,44.26
2016-03-28T17:19:08.426Z,44.65
2016-03-28T17:20:08.165Z,43.69
2016-03-28T17:21:08.274Z,44.43
2016-03-28T17:22:08.309Z,44.62
2016-03-28T17:23:08.702Z,44.53
2016-03-28T17:24:22.281Z,43.48
2016-03-28T17:25:07.628Z,44.24
2016-03-28T17:26:08.178Z,44.15
2016-03-28T17:27:08.180Z,44.43
2016-03-28T17:28:08.183Z,44.15
2016-03-28T17:29:08.186Z,44.05
2016-03-28T17:30:08.579Z,44.53
2016-03-28T17:31:08.207Z,44.62
2016-03-28T17:32:08.381Z,44.24
2016-03-28T17:33:08.446Z,44.72
2016-03-28T17:34:08.230Z,44.81
2016-03-28T17:35:08.233Z,45.01
2016-03-28T17:36:08.330Z,44.91
2016-03-28T17:37:08.254Z,45.2
2016-03-28T17:38:08.319Z,44.62
2016-03-28T17:39:08.354Z,44.22
2016-03-28T17:40:08.277Z,43.66
2016-03-28T17:41:08.343Z,44.05
2016-03-28T17:42:08.283Z,44.34
2016-03-28T17:43:08.285Z,44.41
2016-03-28T17:44:08.304Z,44.43
2016-03-28T17:45:08.307Z,44.31
2016-03-28T17:46:08.310Z,44.51
2016-03-28T17:47:08.312Z,44.89
2016-03-28T17:48:08.331Z,44.12
2016-03-28T17:49:08.333Z,44.12
2016-03-28T17:50:08.336Z,45.17
2016-03-28T17:51:08.354Z,44.91
2016-03-28T17:52:08.356Z,44.22
2016-03-28T17:53:08.374Z,44.41
2016-03-28T17:54:08.455Z,44.31
2016-03-28T17:55:08.583Z,44.6
2016-03-28T17:56:08.399Z,44.41
2016-03-28T17:57:08.402Z,44.22
2016-03-28T17:58:08.404Z,44.7
2016-03-28T17:59:08.407Z,45.27
2016-03-28T18:00:08.425Z,45.37
2016-03-28T18:01:08.413Z,45.46
2016-03-28T18:02:08.430Z,45.56
2016-03-28T18:03:08.636Z,45.84
2016-03-28T18:04:08.561Z,46.72
2016-03-28T18:05:08.438Z,45.94
2016-03-28T18:06:08.472Z,46.32
2016-03-28T18:07:08.459Z,46.61
2016-03-28T18:08:08.665Z,46.61
2016-03-28T18:09:08.668Z,46.7
2016-03-28T18:10:08.686Z,46.89
2016-03-28T18:11:08.501Z,47.18
2016-03-28T18:12:08.504Z,46.89
2016-03-28T18:13:08.710Z,47.08
2016-03-28T18:16:08.562Z,47.47
2016-03-28T18:17:08.533Z,47.47
2016-03-28T18:18:08.536Z,46.99
2016-03-28T18:19:08.554Z,47.56
2016-03-28T18:20:08.557Z,47.27
2016-03-28T18:21:08.606Z,47.66
2016-03-28T18:22:08.578Z,47.85
2016-03-28T18:23:08.581Z,47.94
2016-03-28T18:24:08.678Z,48.04
2016-03-28T18:25:08.617Z,47.66
2016-03-28T18:26:08.589Z,47.94
2016-03-28T18:27:08.608Z,48.52
2016-03-28T18:28:22.703Z,48.33
2016-03-28T18:29:08.628Z,48.52
2016-03-28T18:30:22.709Z,48.61
2016-03-28T18:31:08.649Z,48.61
2016-03-28T18:32:08.667Z,48.33
2016-03-28T18:33:22.952Z,48.61
2016-03-28T18:34:08.657Z,48.8
2016-03-28T18:35:08.660Z,48.8
2016-03-28T18:36:08.710Z,49.09
2016-03-28T18:37:08.680Z,49.09
2016-03-28T18:38:08.933Z,49.09
2016-03-28T18:39:08.717Z,49.28
2016-03-28T18:40:08.236Z,48.99
2016-03-28T18:41:08.723Z,49.28
2016-03-28T18:42:08.726Z,49.18
2016-03-28T18:43:08.946Z,49.54
2016-03-28T18:44:08.715Z,49.54
2016-03-28T18:45:22.827Z,49.93
2016-03-28T18:46:08.736Z,50.12
2016-03-28T18:48:08.773Z,50.69
2016-03-28T18:49:08.776Z,50.69
2016-03-28T18:50:08.998Z,50.59
2016-03-28T18:51:08.781Z,50.59
2016-03-28T18:52:08.784Z,51.17
2016-03-28T18:53:09.223Z,51.07
2016-03-28T18:54:08.820Z,51.33
2016-03-28T18:55:08.792Z,51.52
2016-03-28T18:56:08.825Z,51.62
2016-03-28T18:57:08.813Z,51.9
2016-03-28T18:59:08.850Z,52.19
2016-03-28T19:00:08.836Z,52.19
2016-03-28T19:01:09.277Z,52.09
2016-03-28T19:02:08.841Z,52.57
2016-03-28T19:03:08.845Z,52.48
2016-03-28T19:04:08.847Z,52.76
2016-03-28T19:05:08.865Z,52.67
2016-03-28T19:06:08.869Z,52.76
2016-03-28T19:07:08.902Z,53.24
2016-03-28T19:08:08.869Z,53.12
2016-03-28T19:09:08.873Z,53.59
2016-03-28T19:10:08.891Z,53.69
2016-03-28T19:11:08.894Z,53.69
2016-03-28T19:12:08.897Z,54.45
2016-03-28T19:13:08.945Z,54.45
2016-03-28T19:14:08.948Z,54.93
2016-03-28T19:15:08.950Z,55.02
2016-03-28T19:16:08.938Z,54.93
2016-03-28T19:17:08.940Z,54.83
2016-03-28T19:18:08.975Z,54.74
2016-03-28T19:19:23.040Z,55.5
2016-03-28T19:20:08.496Z,55.5
2016-03-28T19:21:08.952Z,55.41
2016-03-28T19:22:08.954Z,55.88
2016-03-28T19:23:08.957Z,55.6
2016-03-28T19:24:08.991Z,56.36
2016-03-28T19:25:09.181Z,56.36
2016-03-28T19:26:08.980Z,56.36
2016-03-28T19:27:09.202Z,56.26
2016-03-28T19:28:08.985Z,56.17
2016-03-28T19:29:08.989Z,56.65
2016-03-28T19:30:08.991Z,56.46
2016-03-28T19:31:09.197Z,56.65
2016-03-28T19:32:09.013Z,56.74
2016-03-28T19:33:09.234Z,56.84
2016-03-28T19:34:08.549Z,56.43
2016-03-28T19:35:09.021Z,57.31
2016-03-28T19:36:09.023Z,56.84
2016-03-28T19:37:09.042Z,57.22
2016-03-28T19:38:09.029Z,57.28
2016-03-28T19:39:09.062Z,57.19
2016-03-28T19:40:09.033Z,57.31
2016-03-28T19:41:09.271Z,58.75
2016-03-28T19:42:09.055Z,57.67
2016-03-28T19:43:09.057Z,57.76
2016-03-28T19:44:09.061Z,57.76
2016-03-28T19:45:09.078Z,57.86
2016-03-28T19:46:09.081Z,57.98
2016-03-28T19:47:09.084Z,57.67
2016-03-28T19:48:09.102Z,58.17
2016-03-28T19:49:09.089Z,58.36
2016-03-28T19:50:09.092Z,57.67
2016-03-28T19:51:09.110Z,57.95
2016-03-28T19:53:09.100Z,58.24
2016-03-28T19:54:09.369Z,58.24
2016-03-28T19:55:09.137Z,57.7
2016-03-28T19:56:09.124Z,58.17
2016-03-28T19:57:09.143Z,57.67
2016-03-28T19:58:09.145Z,57.98
2016-03-28T19:59:09.179Z,58.55
2016-03-28T20:00:09.150Z,58.84
2016-03-28T20:01:09.199Z,58.24
2016-03-28T20:02:09.156Z,58.55
2016-03-28T20:03:09.174Z,58.75
2016-03-28T20:04:09.364Z,58.36
2016-03-28T20:05:09.179Z,58.17
2016-03-28T20:07:09.215Z,58.26
2016-03-28T20:08:09.187Z,58.94
2016-03-28T20:09:09.393Z,58.52
2016-03-28T20:10:09.192Z,58.36
2016-03-28T20:11:09.195Z,58.36
2016-03-28T20:12:09.214Z,59.03
2016-03-28T20:13:09.217Z,58.84
2016-03-28T20:14:09.235Z,58.65
2016-03-28T20:15:09.253Z,58.65
2016-03-28T20:16:09.677Z,58.84
2016-03-28T20:17:09.462Z,58.65
2016-03-28T20:18:23.324Z,58.65
2016-03-28T20:19:09.279Z,59.22
2016-03-28T20:20:08.782Z,59.12
2016-03-28T20:21:09.253Z,59.03
2016-03-28T20:22:09.256Z,59.22
2016-03-28T20:23:09.275Z,59.03
2016-03-28T20:24:09.465Z,59.31
2016-03-28T20:25:09.482Z,58.94
2016-03-28T20:26:09.299Z,58.65
2016-03-28T20:27:09.488Z,59.12
2016-03-28T20:28:09.304Z,58.75
2016-03-28T20:29:09.306Z,58.55
2016-03-28T20:30:09.309Z,59.12
2016-03-28T20:31:09.312Z,59.12
2016-03-28T20:32:09.518Z,58.84
2016-03-28T20:33:09.332Z,58.75
2016-03-28T20:34:09.320Z,59.12
2016-03-28T20:36:09.528Z,58.75
2016-03-28T20:37:09.343Z,58.84
2016-03-28T20:38:09.548Z,59.12
2016-03-28T20:39:09.584Z,59.22
2016-03-28T20:40:09.351Z,58.94
2016-03-28T20:41:09.354Z,59.12
2016-03-28T20:42:09.357Z,59.03
2016-03-28T20:44:09.378Z,58.75
2016-03-28T20:45:09.381Z,58.94
2016-03-28T20:46:09.383Z,58.84
2016-03-28T20:47:09.588Z,58.36
2016-03-28T20:48:09.591Z,59.12
2016-03-28T20:49:09.407Z,59.31
2016-03-28T20:50:09.644Z,58.94
2016-03-28T20:51:09.413Z,58.94
2016-03-28T20:52:09.430Z,58.36
2016-03-28T20:53:09.433Z,58.94
2016-03-28T20:54:09.421Z,59.89
2016-03-28T20:55:09.438Z,59.99
2016-03-28T20:56:09.441Z,59.79
2016-03-28T20:57:09.600Z,60.46
2016-03-28T20:58:09.556Z,61.51
2016-03-28T20:59:09.466Z,61.8
2016-03-28T21:00:09.468Z,62.56
2016-03-28T21:01:09.454Z,62.65
2016-03-28T21:02:09.474Z,63.13
2016-03-28T21:03:09.476Z,64.15
2016-03-28T21:04:09.479Z,64.43
2016-03-28T21:05:09.715Z,64.43
2016-03-28T21:06:09.499Z,64.43
2016-03-28T21:07:09.486Z,64.43
2016-03-28T21:08:09.505Z,65
2016-03-28T21:09:09.507Z,65.58
2016-03-28T21:10:09.509Z,65.45
2016-03-28T21:11:09.512Z,66.59
2016-03-28T21:12:09.969Z,66.78
2016-03-28T21:13:09.534Z,66.88
2016-03-28T21:14:09.943Z,66.31
2016-03-28T21:15:09.555Z,66.5
2016-03-28T21:16:09.776Z,66.78
2016-03-28T21:17:09.561Z,67.16
2016-03-28T21:18:09.563Z,67.16
2016-03-28T21:19:09.581Z,67.35
2016-03-28T21:20:09.552Z,68.12
2016-03-28T21:21:09.556Z,68.02
2016-03-28T21:22:09.558Z,67.93
2016-03-28T21:23:09.560Z,68.08
2016-03-28T21:24:09.782Z,68.18
2016-03-28T21:25:09.800Z,68.94
2016-03-28T21:26:09.585Z,68.27
2016-03-28T21:27:09.791Z,69.04
2016-03-28T21:28:09.621Z,69.23
2016-03-28T21:29:09.983Z,68.65
2016-03-28T21:30:09.596Z,69.89
2016-03-28T21:31:09.613Z,69.51
2016-03-28T21:32:09.600Z,69.89
2016-03-28T21:33:09.837Z,69.99
2016-03-28T21:34:09.606Z,69.89
2016-03-28T21:35:09.609Z,70.27
2016-03-28T21:36:09.612Z,69.32
2016-03-28T21:37:09.629Z,69.6
2016-03-28T21:38:09.617Z,69.51
2016-03-28T21:39:09.620Z,69.42
2016-03-28T21:40:09.622Z,69.51
2016-03-28T21:41:09.640Z,70.14
2016-03-28T21:42:09.642Z,69.48
2016-03-28T21:43:09.834Z,69.6
2016-03-28T21:44:09.664Z,69.04
2016-03-28T21:45:09.854Z,69.19
2016-03-28T21:46:09.654Z,69.57
2016-03-28T21:47:09.656Z,69.38
2016-03-28T21:48:09.904Z,69
2016-03-28T21:49:09.648Z,69.67
2016-03-28T21:50:09.861Z,69.85
2016-03-28T21:51:09.198Z,69
2016-03-28T21:52:09.832Z,69.19
2016-03-28T21:53:09.641Z,69.19
2016-03-28T21:54:09.641Z,70.14
2016-03-28T21:55:09.796Z,70.9
2016-03-28T21:56:09.639Z,69.85
2016-03-28T21:57:09.624Z,69.85
2016-03-28T21:58:09.624Z,69.76
2016-03-28T21:59:09.641Z,69.76
2016-03-28T22:01:09.644Z,69.67
2016-03-28T22:02:10.068Z,69.38
2016-03-28T22:03:09.632Z,69.29
2016-03-28T22:04:09.635Z,69.85
2016-03-28T22:05:09.653Z,69.29
2016-03-28T22:06:08.888Z,69.38
2016-03-28T22:07:09.641Z,69.38
2016-03-28T22:08:09.660Z,69.48
2016-03-28T22:09:09.646Z,69.57
2016-03-28T22:10:09.742Z,69.38
2016-03-28T22:11:09.853Z,69.1
2016-03-28T22:12:10.074Z,69.38
2016-03-28T22:13:09.656Z,69.38
2016-03-28T22:14:09.893Z,69.48
2016-03-28T22:15:09.661Z,69.1
2016-03-28T22:16:09.663Z,69.48
2016-03-28T22:17:09.682Z,69.1
2016-03-28T22:18:09.887Z,69.38
2016-03-28T22:19:09.687Z,69.29
2016-03-28T22:20:09.689Z,69.29
2016-03-28T22:21:09.709Z,69.85
2016-03-28T22:22:09.711Z,69.29
2016-03-28T22:23:09.729Z,69.38
2016-03-28T22:24:09.685Z,69.19
2016-03-28T22:25:09.765Z,69.38
2016-03-28T22:26:09.940Z,69.1
2016-03-28T22:27:09.709Z,69.1
2016-03-28T22:28:09.914Z,69.1
2016-03-28T22:29:09.761Z,68.9
2016-03-28T22:30:09.248Z,69.1
2016-03-28T22:31:09.720Z,69
2016-03-28T22:32:09.722Z,68.9
2016-03-28T22:33:09.725Z,69
2016-03-28T22:34:09.728Z,68.9
2016-03-28T22:35:10.136Z,68.62
2016-03-28T22:36:09.936Z,68.33
2016-03-28T22:37:09.736Z,68.24
2016-03-28T22:38:09.722Z,68.52
2016-03-28T22:39:10.350Z,69
2016-03-28T22:40:09.806Z,69
2016-03-28T22:41:09.746Z,69.1
2016-03-28T22:42:09.749Z,68.81
2016-03-28T22:43:09.752Z,69
2016-03-28T22:44:09.754Z,69.1
2016-03-28T22:45:09.773Z,68.71
2016-03-28T22:46:09.963Z,69.1
2016-03-28T22:47:09.778Z,68.24
2016-03-28T22:48:09.781Z,68.52
2016-03-28T22:49:09.783Z,68.43
2016-03-28T22:50:09.771Z,68.62
2016-03-28T22:51:09.804Z,68.52
2016-03-28T22:52:09.776Z,68.52
2016-03-28T22:53:09.779Z,68.9
2016-03-28T22:54:09.781Z,69
2016-03-28T22:55:09.846Z,69
2016-03-28T22:56:10.037Z,69.29
2016-03-28T22:57:09.789Z,69.38
2016-03-28T22:58:09.808Z,69.19
2016-03-28T22:59:09.810Z,69.85
2016-03-28T23:00:09.829Z,69.38
2016-03-28T23:01:09.800Z,69.35
2016-03-28T23:02:09.803Z,69.25
2016-03-28T23:03:09.665Z,68.96
2016-03-28T23:04:09.808Z,69.54
2016-03-28T23:05:09.811Z,69.06
2016-03-28T23:06:10.017Z,69.25
2016-03-28T23:07:09.816Z,69.44
2016-03-28T23:08:09.819Z,69.92
2016-03-28T23:09:09.822Z,69.73
2016-03-28T23:10:09.684Z,69.63
2016-03-28T23:11:09.843Z,70.01
2016-03-28T23:12:09.830Z,69.92
2016-03-28T23:13:09.832Z,70.01
2016-03-28T23:14:09.851Z,70.49
2016-03-28T23:15:09.837Z,70.1
2016-03-28T23:16:09.857Z,70.49
2016-03-28T23:17:09.843Z,70.39
2016-03-28T23:18:10.048Z,70.58
2016-03-28T23:19:09.848Z,70.49
2016-03-28T23:20:09.851Z,70.58
2016-03-28T23:21:09.854Z,70.39
2016-03-28T23:22:09.873Z,70.49
2016-03-28T23:23:09.859Z,70.77
2016-03-28T23:24:10.268Z,70.58
2016-03-28T23:25:09.880Z,70.39
2016-03-28T23:26:23.962Z,70.39
2016-03-28T23:27:10.073Z,70.2
2016-03-28T23:28:09.872Z,70.49
2016-03-28T23:29:09.892Z,70.49
2016-03-28T23:30:09.878Z,70.45
2016-03-28T23:31:09.881Z,69.54
2016-03-28T23:32:09.884Z,69.82
2016-03-28T23:33:09.886Z,69.69
2016-03-28T23:34:09.889Z,69.79
2016-03-28T23:35:09.891Z,69.88
2016-03-28T23:36:09.911Z,69.79
2016-03-28T23:37:09.897Z,70.36
2016-03-28T23:38:09.899Z,69.5
2016-03-28T23:39:24.214Z,70.26
2016-03-28T23:40:09.889Z,69.88
2016-03-28T23:41:09.923Z,69.88
2016-03-28T23:42:09.927Z,69.88
2016-03-28T23:43:09.929Z,70.07
2016-03-28T23:44:09.916Z,69.69
2016-03-28T23:45:09.949Z,69.98
2016-03-28T23:46:10.124Z,70.07
2016-03-28T23:47:10.127Z,69.69
2016-03-28T23:48:09.910Z,69.88
2016-03-28T23:49:09.929Z,70.26
2016-03-28T23:50:09.916Z,70.17
2016-03-28T23:51:09.918Z,69.6
2016-03-28T23:52:10.124Z,69.69
2016-03-28T23:53:09.940Z,69.79
2016-03-28T23:54:09.943Z,69.79
2016-03-28T23:56:10.135Z,69.25
2016-03-28T23:57:09.950Z,69.15
2016-03-28T23:59:09.956Z,69.25
